Time;durP1;ratioP1;P1;durP2;ratioP2;P2;SDS_P1;SDS_P2;PMS_P1;PMS_P2;Temp;Humidity;BMP_temperature;BMP_pressure;BME280_temperature;BME280_humidity;BME280_pressure;Samples;Min_cycle;Max_cycle;Signal;HPM_P1;HPM_P2
2022/05/20 00:00:48;;;;;;;0.00;0.00;;;13.90;99.90;;;;;;5052600;28;20090;-80
2022/05/20 00:03:15;;;;;;;0.00;0.00;;;13.90;99.90;;;;;;5069114;28;20152;-80
2022/05/20 00:05:42;;;;;;;0.10;0.10;;;13.90;99.90;;;;;;5077258;28;20159;-80
2022/05/20 00:08:09;;;;;;;0.10;0.10;;;13.90;99.90;;;;;;5055552;28;20047;-80
2022/05/20 00:10:36;;;;;;;0.10;0.10;;;13.90;99.90;;;;;;5055703;28;20040;-80
2022/05/20 00:13:04;;;;;;;0.00;0.00;;;13.80;99.90;;;;;;5072195;28;20079;-80
2022/05/20 00:15:30;;;;;;;0.13;0.13;;;13.80;99.90;;;;;;5072402;28;20033;-80
2022/05/20 00:17:58;;;;;;;0.13;0.10;;;13.80;99.90;;;;;;5039188;28;20914;-78
2022/05/20 00:20:27;;;;;;;0.10;0.10;;;13.70;99.90;;;;;;5072814;28;20067;-80
2022/05/20 00:22:55;;;;;;;0.15;0.15;;;13.80;99.90;;;;;;5072237;28;20404;-79
2022/05/20 00:28:09;;;;;;;0.10;0.10;;;13.80;99.90;;;;;;5072234;28;20063;-79
2022/05/20 00:30:36;;;;;;;0.10;0.10;;;13.80;99.90;;;;;;5056470;28;20502;-79
2022/05/20 00:33:03;;;;;;;0.10;0.10;;;13.70;99.90;;;;;;5056214;28;20036;-79
2022/05/20 00:35:31;;;;;;;0.10;0.10;;;13.80;99.90;;;;;;5040231;28;20036;-79
2022/05/20 00:37:57;;;;;;;0.10;0.10;;;13.70;99.90;;;;;;5040270;28;20091;-79
2022/05/20 00:40:26;;;;;;;0.05;0.00;;;13.70;99.90;;;;;;5023514;28;20433;-80
2022/05/20 00:43:07;;;;;;;0.10;0.10;;;13.70;99.90;;;;;;5072556;28;20040;-79
2022/05/20 00:45:34;;;;;;;0.30;0.25;;;13.70;99.90;;;;;;5063409;28;20529;-80
2022/05/20 00:48:01;;;;;;;0.50;0.20;;;13.70;99.90;;;;;;5051040;28;20048;-80
2022/05/20 00:50:28;;;;;;;0.10;0.10;;;13.70;99.90;;;;;;5105564;28;20051;-80
2022/05/20 00:52:54;;;;;;;0.13;0.13;;;13.80;99.90;;;;;;5055835;28;20468;-79
2022/05/20 00:55:23;;;;;;;0.00;0.00;;;13.70;99.90;;;;;;5105365;28;20168;-80
2022/05/20 00:57:55;;;;;;;0.10;0.10;;;13.70;99.90;;;;;;5072089;28;20056;-79
2022/05/20 01:00:24;;;;;;;0.20;0.17;;;13.70;99.90;;;;;;5072139;28;20041;-80
2022/05/20 01:02:54;;;;;;;0.20;0.20;;;13.60;99.90;;;;;;5055890;28;20043;-80
2022/05/20 01:05:27;;;;;;;0.10;0.10;;;13.60;99.90;;;;;;5073425;28;20041;-79
2022/05/20 01:07:55;;;;;;;0.20;0.10;;;13.50;99.90;;;;;;5092309;28;20374;-79
2022/05/20 01:10:22;;;;;;;0.22;0.10;;;13.50;99.90;;;;;;5075070;28;20507;-79
2022/05/20 01:12:51;;;;;;;0.00;0.00;;;13.50;99.90;;;;;;5075716;28;20036;-80
2022/05/20 01:15:18;;;;;;;0.10;0.10;;;13.40;99.90;;;;;;5091697;28;20044;-79
2022/05/20 01:17:47;;;;;;;0.40;0.20;;;13.40;99.90;;;;;;5042848;28;20039;-79
2022/05/20 01:20:19;;;;;;;0.20;0.20;;;13.40;99.90;;;;;;5074789;28;20036;-80
2022/05/20 01:23:00;;;;;;;0.15;0.15;;;13.30;99.90;;;;;;5075473;28;20040;-80
2022/05/20 01:25:29;;;;;;;0.10;0.10;;;13.30;99.90;;;;;;5071402;28;20044;-79
2022/05/20 01:27:56;;;;;;;0.10;0.10;;;13.30;99.90;;;;;;5071513;28;20045;-79
2022/05/20 01:30:25;;;;;;;0.10;0.10;;;13.20;99.90;;;;;;5055139;28;20053;-79
2022/05/20 01:32:53;;;;;;;0.10;0.10;;;13.20;99.90;;;;;;5055332;28;20043;-80
2022/05/20 01:35:41;;;;;;;0.10;0.10;;;13.20;99.90;;;;;;5064462;28;20493;-79
2022/05/20 01:38:09;;;;;;;0.10;0.10;;;13.10;99.90;;;;;;5074911;28;20066;-79
2022/05/20 01:40:48;;;;;;;0.17;0.17;;;13.00;99.90;;;;;;5074866;28;20516;-80
2022/05/20 01:43:49;;;;;;;0.10;0.10;;;13.00;99.90;;;;;;5074589;28;20052;-79
2022/05/20 01:46:19;;;;;;;0.20;0.20;;;12.90;99.90;;;;;;5068527;28;20113;-79
2022/05/20 01:49:17;;;;;;;0.13;0.13;;;12.90;99.90;;;;;;5065842;28;20427;-79
2022/05/20 01:52:03;;;;;;;0.10;0.10;;;12.80;99.90;;;;;;5091553;28;20044;-79
2022/05/20 01:54:33;;;;;;;0.10;0.10;;;12.80;99.90;;;;;;5074495;28;20504;-79
2022/05/20 01:57:10;;;;;;;0.10;0.10;;;12.70;99.90;;;;;;5071141;28;20557;-79
2022/05/20 01:59:46;;;;;;;0.10;0.10;;;12.70;99.90;;;;;;5074214;28;20378;-79
2022/05/20 02:02:29;;;;;;;0.10;0.10;;;12.60;99.90;;;;;;5065672;28;20036;-80
2022/05/20 02:05:04;;;;;;;0.10;0.10;;;12.60;99.90;;;;;;5088221;28;20150;-79
2022/05/20 02:07:34;;;;;;;0.10;0.10;;;12.60;99.90;;;;;;5076997;28;20036;-80
2022/05/20 02:10:17;;;;;;;0.20;0.20;;;12.60;99.90;;;;;;5091113;28;20036;-79
2022/05/20 02:12:49;;;;;;;0.10;0.10;;;12.50;99.90;;;;;;5075599;28;20043;-80
2022/05/20 02:15:28;;;;;;;0.13;0.10;;;12.50;99.90;;;;;;5090848;28;20058;-80
2022/05/20 02:18:00;;;;;;;0.10;0.10;;;12.50;99.90;;;;;;5091085;28;20121;-79
2022/05/20 02:20:40;;;;;;;0.10;0.10;;;12.40;99.90;;;;;;5074334;28;20036;-79
2022/05/20 02:23:20;;;;;;;0.57;0.22;;;12.40;99.90;;;;;;5090899;28;20091;-79
2022/05/20 02:25:53;;;;;;;0.30;0.20;;;12.40;99.90;;;;;;5074434;28;20127;-79
2022/05/20 02:28:42;;;;;;;0.10;0.10;;;12.30;99.90;;;;;;5073501;28;20061;-79
2022/05/20 02:31:22;;;;;;;0.15;0.15;;;12.20;99.90;;;;;;5090894;28;20398;-79
2022/05/20 02:33:49;;;;;;;0.20;0.13;;;12.20;99.90;;;;;;5090791;28;20037;-79
2022/05/20 02:36:28;;;;;;;0.10;0.10;;;12.10;99.90;;;;;;5057361;28;20041;-79
2022/05/20 02:38:54;;;;;;;0.10;0.10;;;12.10;99.90;;;;;;5070494;28;20406;-80
2022/05/20 02:41:21;;;;;;;0.28;0.10;;;12.00;99.90;;;;;;5037192;28;20045;-80
2022/05/20 02:43:48;;;;;;;0.20;0.13;;;11.90;99.90;;;;;;5037602;28;20044;-79
2022/05/20 02:46:15;;;;;;;0.15;0.00;;;11.90;99.90;;;;;;5037505;28;20041;-80
2022/05/20 02:48:41;;;;;;;0.10;0.10;;;11.80;99.90;;;;;;5069252;28;20076;-79
2022/05/20 02:51:08;;;;;;;0.10;0.10;;;11.80;99.90;;;;;;5037477;28;20088;-79
2022/05/20 02:53:35;;;;;;;0.10;0.10;;;11.80;99.90;;;;;;5070260;28;20037;-80
2022/05/20 02:56:03;;;;;;;0.00;0.00;;;11.70;99.90;;;;;;5037588;28;20472;-79
2022/05/20 03:04:10;;;;;;;;;;;11.60;99.90;;;;;;5070519;28;20187;-80
2022/05/20 03:06:51;;;;;;;0.20;0.20;;;11.60;99.90;;;;;;5069728;28;19916;-80
2022/05/20 03:09:20;;;;;;;0.10;0.10;;;11.60;99.90;;;;;;5068742;28;20126;-80
2022/05/20 03:11:48;;;;;;;0.10;0.10;;;11.50;99.90;;;;;;5072851;28;20049;-80
2022/05/20 03:14:18;;;;;;;0.20;0.20;;;11.40;99.90;;;;;;5073126;28;20040;-80
2022/05/20 03:16:45;;;;;;;0.30;0.30;;;11.40;99.90;;;;;;5072265;28;20085;-79
2022/05/20 03:19:12;;;;;;;0.10;0.10;;;11.50;99.90;;;;;;5072648;28;20083;-79
2022/05/20 03:21:39;;;;;;;0.20;0.20;;;11.50;99.90;;;;;;5072655;28;20075;-79
2022/05/20 03:24:07;;;;;;;0.00;0.00;;;11.40;99.90;;;;;;5089685;28;20041;-80
2022/05/20 03:26:34;;;;;;;0.10;0.10;;;11.40;99.90;;;;;;5072449;28;20075;-79
2022/05/20 03:29:03;;;;;;;0.10;0.10;;;11.30;99.90;;;;;;5072621;28;20100;-80
2022/05/20 03:31:32;;;;;;;0.20;0.20;;;11.30;99.90;;;;;;5072140;28;20041;-79
2022/05/20 03:34:05;;;;;;;0.15;0.10;;;11.30;99.90;;;;;;5089309;28;20079;-79
2022/05/20 03:36:34;;;;;;;0.20;0.20;;;11.30;99.90;;;;;;5089088;28;20142;-79
2022/05/20 03:39:06;;;;;;;0.10;0.10;;;11.30;99.90;;;;;;5072272;28;20044;-80
2022/05/20 03:41:33;;;;;;;0.20;0.20;;;11.30;99.90;;;;;;5088902;28;20169;-80
2022/05/20 03:44:00;;;;;;;0.45;0.13;;;11.20;99.90;;;;;;5072287;28;20497;-79
2022/05/20 03:46:27;;;;;;;0.10;0.10;;;11.20;99.90;;;;;;5072145;28;20059;-80
2022/05/20 03:48:53;;;;;;;0.13;0.10;;;11.20;99.90;;;;;;5072419;28;20139;-80
2022/05/20 03:51:20;;;;;;;0.10;0.10;;;11.20;99.90;;;;;;5072684;28;20033;-80
2022/05/20 03:53:47;;;;;;;0.10;0.10;;;11.20;99.90;;;;;;5055956;28;20075;-80
2022/05/20 03:56:13;;;;;;;0.10;0.10;;;11.20;99.90;;;;;;5071181;28;20044;-80
2022/05/20 03:58:40;;;;;;;0.10;0.10;;;11.20;99.90;;;;;;5068563;28;20131;-80
2022/05/20 04:03:55;;;;;;;0.10;0.10;;;11.20;99.90;;;;;;5089001;28;20136;-81
2022/05/20 04:06:22;;;;;;;0.10;0.10;;;11.20;99.90;;;;;;5056261;28;20075;-80
2022/05/20 04:08:49;;;;;;;0.20;0.10;;;11.20;99.90;;;;;;5055438;28;20133;-80
2022/05/20 04:11:16;;;;;;;0.22;0.20;;;11.20;99.90;;;;;;5056201;28;20072;-80
2022/05/20 04:13:44;;;;;;;0.10;0.10;;;11.20;99.90;;;;;;5055637;28;20446;-80
2022/05/20 04:16:13;;;;;;;0.03;0.00;;;11.20;99.90;;;;;;5088448;28;20036;-79
2022/05/20 04:18:41;;;;;;;0.10;0.10;;;11.20;99.90;;;;;;5071764;28;20193;-80
2022/05/20 04:21:09;;;;;;;0.40;0.40;;;11.20;99.90;;;;;;5089217;28;20051;-80
2022/05/20 04:23:36;;;;;;;0.10;0.10;;;11.30;99.90;;;;;;5072155;28;20058;-80
2022/05/20 04:26:03;;;;;;;0.38;0.38;;;11.20;99.90;;;;;;5088910;28;20874;-80
2022/05/20 04:28:29;;;;;;;0.00;0.00;;;11.30;99.90;;;;;;5069410;28;20053;-80
2022/05/20 04:30:59;;;;;;;0.20;0.20;;;11.30;99.90;;;;;;5052075;28;20049;-80
2022/05/20 04:33:27;;;;;;;0.13;0.13;;;11.30;99.90;;;;;;5052111;28;20080;-80
2022/05/20 04:35:54;;;;;;;0.10;0.10;;;11.30;99.90;;;;;;5054337;28;20041;-80
2022/05/20 04:38:21;;;;;;;0.20;0.20;;;11.40;99.90;;;;;;5068510;28;20123;-80
2022/05/20 04:49:06;;;;;;;0.40;0.30;;;11.80;99.90;;;;;;5060971;28;20126;-80
2022/05/20 04:51:33;;;;;;;0.52;0.20;;;11.80;99.90;;;;;;5071870;28;20032;-79
2022/05/20 04:56:46;;;;;;;0.28;0.13;;;11.80;99.90;;;;;;5066444;28;20049;-80
2022/05/20 04:59:13;;;;;;;0.17;0.17;;;11.90;99.90;;;;;;5072460;28;20827;-80
2022/05/20 05:01:40;;;;;;;0.20;0.20;;;11.90;99.90;;;;;;5071694;28;20037;-79
2022/05/20 05:04:07;;;;;;;0.08;0.08;;;11.90;99.90;;;;;;5071984;28;20374;-80
2022/05/20 05:06:34;;;;;;;0.20;0.20;;;12.00;99.90;;;;;;5051356;28;20037;-79
2022/05/20 05:09:01;;;;;;;0.15;0.13;;;11.90;99.90;;;;;;5048480;28;20098;-80
2022/05/20 05:11:27;;;;;;;0.17;0.17;;;12.00;99.90;;;;;;5057165;28;20048;-80
2022/05/20 05:13:54;;;;;;;0.00;0.00;;;12.00;99.90;;;;;;5058937;28;20134;-80
2022/05/20 05:16:21;;;;;;;0.10;0.10;;;12.10;99.90;;;;;;5058719;28;20040;-80
2022/05/20 05:18:48;;;;;;;0.10;0.10;;;12.00;99.90;;;;;;5092038;28;20076;-80
2022/05/20 05:21:16;;;;;;;0.10;0.10;;;12.10;99.90;;;;;;5058618;28;20044;-79
2022/05/20 05:23:43;;;;;;;0.10;0.10;;;12.10;99.90;;;;;;5075238;28;20032;-80
2022/05/20 05:26:10;;;;;;;0.00;0.00;;;12.20;99.90;;;;;;5071460;28;20037;-80
2022/05/20 05:28:37;;;;;;;0.20;0.20;;;12.20;99.90;;;;;;5038470;28;20055;-80
2022/05/20 05:31:04;;;;;;;0.10;0.10;;;12.20;99.90;;;;;;5073097;28;20053;-80
2022/05/20 05:33:31;;;;;;;0.28;0.10;;;12.20;99.90;;;;;;5049206;28;20062;-80
2022/05/20 05:35:57;;;;;;;0.25;0.25;;;12.30;99.90;;;;;;5074177;28;20059;-80
2022/05/20 05:38:24;;;;;;;0.03;0.03;;;12.40;99.90;;;;;;5071615;28;20063;-80
2022/05/20 05:40:51;;;;;;;0.20;0.20;;;12.50;99.90;;;;;;5054528;28;20077;-80
2022/05/20 05:43:18;;;;;;;0.20;0.20;;;12.50;99.90;;;;;;5054843;28;20106;-80
2022/05/20 05:45:44;;;;;;;0.25;0.25;;;12.50;99.90;;;;;;5057376;28;20048;-81
2022/05/20 05:48:11;;;;;;;0.17;0.17;;;12.70;99.90;;;;;;5073430;28;20041;-81
2022/05/20 05:50:40;;;;;;;0.20;0.20;;;12.80;99.90;;;;;;5074562;28;20081;-79
2022/05/20 05:53:16;;;;;;;0.08;0.08;;;12.80;99.90;;;;;;5072141;28;20085;-79
2022/05/20 05:55:45;;;;;;;0.30;0.20;;;12.90;99.90;;;;;;5082640;28;20120;-80
2022/05/20 05:58:13;;;;;;;0.17;0.17;;;13.10;99.90;;;;;;5063185;28;20116;-80
2022/05/20 06:00:40;;;;;;;0.30;0.30;;;13.10;99.90;;;;;;5072802;28;20699;-79
2022/05/20 06:03:08;;;;;;;0.80;0.30;;;13.20;99.90;;;;;;5074234;28;20072;-80
2022/05/20 06:05:35;;;;;;;0.20;0.20;;;13.20;99.90;;;;;;5057588;28;20047;-80
2022/05/20 06:08:02;;;;;;;0.47;0.20;;;13.30;99.90;;;;;;5079905;28;20394;-80
2022/05/20 06:10:29;;;;;;;0.20;0.15;;;13.40;99.90;;;;;;5051183;28;20090;-81
2022/05/20 06:12:55;;;;;;;0.25;0.20;;;13.50;99.90;;;;;;5074973;28;20037;-80
2022/05/20 06:15:23;;;;;;;0.10;0.10;;;13.60;99.90;;;;;;5062151;28;20032;-79
2022/05/20 06:17:51;;;;;;;0.20;0.20;;;13.50;99.90;;;;;;5078202;28;20505;-79
2022/05/20 06:20:19;;;;;;;0.52;0.43;;;13.60;99.90;;;;;;5074506;28;20246;-80
2022/05/20 06:22:46;;;;;;;0.40;0.22;;;13.60;99.90;;;;;;5089468;28;20098;-79
2022/05/20 06:25:13;;;;;;;0.47;0.20;;;13.60;99.90;;;;;;5074202;28;20416;-80
2022/05/20 06:27:41;;;;;;;0.52;0.30;;;13.80;99.90;;;;;;5090762;28;20048;-81
2022/05/20 06:30:11;;;;;;;0.20;0.20;;;13.90;99.90;;;;;;5039325;28;20128;-80
2022/05/20 06:32:44;;;;;;;0.20;0.20;;;14.00;99.90;;;;;;5034402;28;20045;-90
2022/05/20 06:40:46;;;;;;;0.15;0.15;;;14.10;99.90;;;;;;5056483;28;20481;-86
2022/05/20 06:43:18;;;;;;;0.10;0.10;;;14.10;99.90;;;;;;5035068;28;20055;-85
2022/05/20 06:45:48;;;;;;;0.13;0.13;;;14.10;99.90;;;;;;5034651;28;20041;-87
2022/05/20 06:48:15;;;;;;;0.10;0.10;;;14.10;99.90;;;;;;5035142;28;20041;-86
2022/05/20 06:50:42;;;;;;;0.28;0.28;;;14.10;99.90;;;;;;5051089;28;20053;-86
2022/05/20 06:53:09;;;;;;;0.25;0.17;;;14.20;99.90;;;;;;5034684;28;20036;-86
2022/05/20 06:55:37;;;;;;;1.02;0.57;;;14.20;99.90;;;;;;5039873;28;20478;-87
2022/05/20 06:58:04;;;;;;;0.17;0.17;;;14.10;99.90;;;;;;5018636;28;20033;-86
2022/05/20 07:00:31;;;;;;;0.25;0.20;;;14.20;99.90;;;;;;5034510;28;20097;-86
2022/05/20 07:02:58;;;;;;;0.25;0.17;;;14.30;99.90;;;;;;5018371;28;20105;-87
2022/05/20 07:05:27;;;;;;;0.25;0.20;;;14.40;99.90;;;;;;5036596;28;20044;-86
2022/05/20 07:07:53;;;;;;;0.20;0.20;;;14.60;99.90;;;;;;5054602;28;20037;-87
2022/05/20 07:10:20;;;;;;;0.10;0.10;;;14.80;99.90;;;;;;5054119;28;20509;-86
2022/05/20 07:12:47;;;;;;;0.22;0.22;;;14.90;99.90;;;;;;5054078;28;20088;-86
2022/05/20 07:15:13;;;;;;;0.20;0.20;;;15.20;99.90;;;;;;5050363;28;20034;-86
2022/05/20 07:17:41;;;;;;;0.45;0.20;;;15.30;99.90;;;;;;5017904;28;20408;-86
2022/05/20 07:20:10;;;;;;;0.30;0.20;;;15.50;99.90;;;;;;5033764;28;20774;-85
2022/05/20 07:22:37;;;;;;;0.28;0.28;;;15.60;99.90;;;;;;5050496;28;20068;-86
2022/05/20 07:25:04;;;;;;;0.25;0.25;;;15.60;99.90;;;;;;5027318;28;20409;-85
2022/05/20 07:27:31;;;;;;;0.55;0.40;;;15.70;99.90;;;;;;5037279;28;20052;-88
2022/05/20 07:29:58;;;;;;;0.35;0.22;;;15.60;99.90;;;;;;5049429;28;20048;-85
2022/05/20 07:32:25;;;;;;;0.65;0.50;;;15.60;99.90;;;;;;5040304;28;20401;-85
2022/05/20 07:34:51;;;;;;;0.55;0.38;;;15.60;99.90;;;;;;5049664;28;20039;-85
2022/05/20 07:37:18;;;;;;;0.43;0.25;;;15.70;99.90;;;;;;5057012;28;20051;-86
2022/05/20 07:39:45;;;;;;;0.30;0.30;;;15.60;99.90;;;;;;5057117;28;20086;-85
2022/05/20 07:42:13;;;;;;;0.10;0.10;;;15.50;99.90;;;;;;5056902;28;20051;-86
2022/05/20 07:44:41;;;;;;;0.30;0.10;;;15.60;99.90;;;;;;5056965;28;20037;-85
2022/05/20 07:47:08;;;;;;;0.40;0.30;;;15.70;99.90;;;;;;5073019;28;20048;-86
2022/05/20 07:49:35;;;;;;;0.17;0.17;;;16.00;99.90;;;;;;5073051;28;20040;-85
2022/05/20 07:52:05;;;;;;;0.45;0.20;;;16.20;99.90;;;;;;5056830;28;20040;-85
2022/05/20 07:54:38;;;;;;;0.73;0.50;;;16.30;99.90;;;;;;5072980;28;20496;-85
2022/05/20 07:57:12;;;;;;;0.38;0.28;;;16.40;99.90;;;;;;5089644;28;20072;-86
2022/05/20 07:59:42;;;;;;;0.47;0.40;;;16.30;99.90;;;;;;5072933;28;20048;-86
2022/05/20 08:02:09;;;;;;;0.20;0.20;;;16.30;99.90;;;;;;5072960;28;20413;-86
2022/05/20 08:05:01;;;;;;;0.47;0.25;;;16.20;99.90;;;;;;5052682;28;20406;-85
2022/05/20 08:07:29;;;;;;;0.20;0.20;;;16.20;99.90;;;;;;5053426;28;20048;-85
2022/05/20 08:09:55;;;;;;;0.38;0.38;;;16.30;99.90;;;;;;5053232;28;20071;-86
2022/05/20 08:12:22;;;;;;;0.60;0.38;;;16.40;99.90;;;;;;5036341;28;20037;-85
2022/05/20 08:14:49;;;;;;;0.20;0.20;;;16.50;99.90;;;;;;5052973;28;20037;-86
2022/05/20 08:17:18;;;;;;;0.15;0.13;;;16.60;99.90;;;;;;5055550;28;20045;-86
2022/05/20 08:19:45;;;;;;;0.40;0.40;;;16.50;99.90;;;;;;5056510;28;20059;-85
2022/05/20 08:22:11;;;;;;;0.20;0.10;;;16.40;99.90;;;;;;5056547;28;20037;-85
2022/05/20 08:24:38;;;;;;;0.30;0.30;;;16.50;99.90;;;;;;5036972;28;20565;-85
2022/05/20 08:27:05;;;;;;;0.45;0.35;;;16.60;99.90;;;;;;5055192;28;20062;-86
2022/05/20 08:29:33;;;;;;;0.30;0.22;;;16.70;99.90;;;;;;5048485;28;20057;-85
2022/05/20 08:32:00;;;;;;;0.10;0.10;;;16.80;99.90;;;;;;5052663;28;20041;-85
2022/05/20 08:34:27;;;;;;;0.40;0.40;;;16.90;99.90;;;;;;5052822;28;20102;-86
2022/05/20 08:36:54;;;;;;;0.15;0.15;;;16.90;99.90;;;;;;5049621;28;20037;-86
2022/05/20 08:39:22;;;;;;;0.43;0.35;;;17.10;99.90;;;;;;5052743;28;20045;-87
2022/05/20 08:41:53;;;;;;;0.28;0.25;;;17.10;99.90;;;;;;5053413;28;20049;-86
2022/05/20 08:44:24;;;;;;;0.20;0.20;;;17.20;99.90;;;;;;5067479;28;20402;-87
2022/05/20 08:47:06;;;;;;;0.50;0.30;;;17.30;99.90;;;;;;5035776;28;20045;-87
2022/05/20 08:49:33;;;;;;;0.10;0.10;;;17.40;99.90;;;;;;5039440;28;20041;-86
2022/05/20 08:51:59;;;;;;;0.20;0.20;;;17.60;99.90;;;;;;5037163;28;20052;-87
2022/05/20 08:54:26;;;;;;;0.22;0.22;;;17.80;99.90;;;;;;5020913;28;20041;-88
2022/05/20 08:56:53;;;;;;;0.60;0.50;;;17.90;99.90;;;;;;5021162;28;20041;-89
2022/05/20 08:59:21;;;;;;;0.52;0.35;;;17.90;99.90;;;;;;5037055;28;20041;-88
2022/05/20 09:01:51;;;;;;;0.30;0.30;;;17.60;99.90;;;;;;5020840;28;20047;-86
2022/05/20 09:04:24;;;;;;;0.40;0.30;;;17.70;99.90;;;;;;5056648;28;20041;-86
2022/05/20 09:07:00;;;;;;;0.80;0.35;;;17.70;99.90;;;;;;5056752;28;20067;-87
2022/05/20 09:09:28;;;;;;;;;;;17.70;99.90;;;;;;5057063;28;20127;-87
2022/05/20 09:11:56;;;;;;;0.47;0.22;;;17.60;99.90;;;;;;5056730;28;19959;-86
2022/05/20 09:17:09;;;;;;;0.40;0.30;;;17.30;99.90;;;;;;5072700;28;20562;-86
2022/05/20 09:19:37;;;;;;;0.38;0.30;;;17.50;99.90;;;;;;5056030;28;20100;-87
2022/05/20 09:22:11;;;;;;;0.30;0.30;;;17.60;99.90;;;;;;5023696;28;20052;-86
2022/05/20 09:24:44;;;;;;;0.75;0.20;;;17.70;99.90;;;;;;5052666;28;20506;-86
2022/05/20 09:27:13;;;;;;;0.40;0.38;;;18.00;99.90;;;;;;5036430;28;20041;-86
2022/05/20 09:30:07;;;;;;;0.60;0.30;;;18.10;99.90;;;;;;5035822;28;20111;-86
2022/05/20 09:32:53;;;;;;;0.50;0.45;;;18.10;99.90;;;;;;5052770;28;20038;-86
2022/05/20 09:35:19;;;;;;;0.30;0.30;;;18.10;99.90;;;;;;5044583;28;20099;-86
2022/05/20 09:37:51;;;;;;;0.50;0.50;;;18.10;99.90;;;;;;5036177;28;20045;-85
2022/05/20 09:40:41;;;;;;;1.23;0.40;;;18.20;99.90;;;;;;5035697;28;20124;-86
2022/05/20 09:43:30;;;;;;;0.40;0.28;;;18.30;99.90;;;;;;5035900;28;20083;-86
2022/05/20 09:45:59;;;;;;;0.32;0.30;;;18.60;99.90;;;;;;5052327;28;20060;-86
2022/05/20 09:48:35;;;;;;;0.40;0.40;;;18.60;99.90;;;;;;5019321;28;20041;-88
2022/05/20 09:51:12;;;;;;;0.20;0.20;;;18.60;99.90;;;;;;5035831;28;20047;-86
2022/05/20 09:53:42;;;;;;;1.63;0.65;;;18.70;99.90;;;;;;5036538;28;20107;-86
2022/05/20 09:56:18;;;;;;;0.73;0.40;;;18.80;99.90;;;;;;5052272;28;20103;-87
2022/05/20 09:59:01;;;;;;;0.70;0.40;;;18.80;99.90;;;;;;5036202;28;20034;-86
2022/05/20 10:01:30;;;;;;;0.60;0.40;;;18.90;99.90;;;;;;5035872;28;20425;-86
2022/05/20 10:04:01;;;;;;;0.70;0.40;;;18.90;99.90;;;;;;5036022;28;20052;-86
2022/05/20 10:06:37;;;;;;;0.50;0.30;;;19.00;99.90;;;;;;5051666;28;20507;-86
2022/05/20 10:09:42;;;;;;;0.80;0.50;;;19.00;99.90;;;;;;5060843;28;20048;-86
2022/05/20 10:12:29;;;;;;;0.40;0.40;;;19.20;99.90;;;;;;5058269;28;20524;-86
2022/05/20 10:15:16;;;;;;;0.70;0.50;;;19.20;99.90;;;;;;5065648;28;20037;-86
2022/05/20 10:18:01;;;;;;;1.45;0.65;;;19.20;99.90;;;;;;5055216;28;20865;-86
2022/05/20 10:20:38;;;;;;;0.40;0.40;;;19.20;99.90;;;;;;5053480;28;20037;-86
2022/05/20 10:23:18;;;;;;;0.70;0.55;;;19.20;99.90;;;;;;5054987;28;20041;-87
2022/05/20 10:25:53;;;;;;;0.80;0.50;;;19.20;99.90;;;;;;5051657;28;20045;-87
2022/05/20 10:34:11;;;;;;;0.32;0.32;;;19.30;99.90;;;;;;5071358;28;20072;-87
2022/05/20 10:37:13;;;;;;;0.70;0.50;;;19.40;99.90;;;;;;5054701;28;20033;-86
2022/05/20 10:40:08;;;;;;;0.70;0.50;;;19.60;99.90;;;;;;5071291;28;20050;-86
2022/05/20 10:49:56;;;;;;;0.35;0.35;;;19.80;99.90;;;;;;4971787;29;20050;-86
2022/05/20 10:52:23;;;;;;;0.35;0.30;;;19.90;99.90;;;;;;5048443;28;20414;-86
2022/05/20 10:55:07;;;;;;;0.20;0.20;;;19.90;99.90;;;;;;5053179;28;20036;-86
2022/05/20 10:58:24;;;;;;;;;;;;;;;;;;;;;
2022/05/20 11:00:55;;;;;;;0.30;0.30;;;20.10;99.90;;;;;;5084014;28;20477;-86
2022/05/20 11:03:51;;;;;;;0.60;0.30;;;20.20;99.90;;;;;;5066420;28;20041;-86
2022/05/20 11:06:26;;;;;;;0.40;0.40;;;20.30;99.90;;;;;;5037292;28;20041;-86
2022/05/20 11:09:08;;;;;;;0.43;0.40;;;20.10;99.90;;;;;;5053869;28;20044;-87
2022/05/20 11:11:48;;;;;;;1.13;0.57;;;20.20;99.90;;;;;;5060384;28;20048;-86
2022/05/20 11:14:51;;;;;;;0.68;0.28;;;20.20;99.90;;;;;;5048499;28;20041;-87
2022/05/20 11:17:39;;;;;;;0.40;0.40;;;20.20;99.90;;;;;;5053295;28;20041;-87
2022/05/20 11:20:32;;;;;;;0.57;0.50;;;20.20;99.90;;;;;;5052027;28;20095;-86
2022/05/20 11:23:34;;;;;;;0.95;0.50;;;20.30;99.90;;;;;;5045294;28;20052;-86
2022/05/20 11:26:39;;;;;;;0.75;0.47;;;20.30;99.90;;;;;;5071343;28;20552;-87
2022/05/20 11:29:16;;;;;;;0.57;0.40;;;20.50;99.90;;;;;;5052374;28;20086;-88
2022/05/20 11:31:54;;;;;;;0.30;0.30;;;20.60;99.90;;;;;;5069918;28;20044;-88
2022/05/20 11:34:49;;;;;;;0.55;0.40;;;20.70;99.90;;;;;;5090854;28;20036;-87
2022/05/20 11:37:28;;;;;;;0.50;0.40;;;20.60;99.90;;;;;;5074713;28;20119;-89
2022/05/20 11:40:21;;;;;;;0.65;0.50;;;20.70;99.90;;;;;;5073588;28;20063;-85
2022/05/20 11:43:21;;;;;;;0.57;0.40;;;20.70;99.90;;;;;;5091004;28;20570;-87
2022/05/20 11:46:43;;;;;;;0.60;0.50;;;20.90;99.90;;;;;;5074191;28;20505;-88
2022/05/20 11:49:46;;;;;;;1.02;0.60;;;21.00;99.90;;;;;;5021014;28;20041;-88
2022/05/20 11:52:19;;;;;;;0.95;0.60;;;21.00;99.90;;;;;;5074943;28;20068;-89
2022/05/20 11:54:56;;;;;;;0.30;0.30;;;21.00;99.90;;;;;;5054274;28;20068;-88
2022/05/20 11:57:27;;;;;;;0.60;0.45;;;21.10;99.90;;;;;;5064728;28;20033;-88
2022/05/20 11:59:57;;;;;;;0.32;0.32;;;21.20;99.90;;;;;;5065764;28;20494;-88
2022/05/20 12:02:26;;;;;;;0.40;0.40;;;21.10;99.90;;;;;;5073394;28;20186;-87
2022/05/20 12:04:53;;;;;;;0.77;0.50;;;21.00;99.90;;;;;;5074078;28;20119;-87
2022/05/20 12:07:23;;;;;;;0.70;0.50;;;21.10;99.90;;;;;;5041238;28;20810;-88
2022/05/20 12:09:55;;;;;;;1.60;0.70;;;21.10;99.90;;;;;;5055946;28;20044;-87
2022/05/20 12:12:31;;;;;;;0.50;0.50;;;21.10;99.90;;;;;;5070087;28;20071;-87
2022/05/20 12:15:10;;;;;;;0.85;0.55;;;21.00;99.90;;;;;;5070480;28;20048;-88
2022/05/20 12:17:48;;;;;;;0.55;0.47;;;21.10;99.90;;;;;;5053528;28;20032;-88
2022/05/20 12:26:16;;;;;;;0.47;0.40;;;21.30;99.90;;;;;;5074450;28;20429;-89
2022/05/20 12:28:43;;;;;;;1.10;0.70;;;21.30;99.90;;;;;;5058014;28;20048;-90
2022/05/20 12:31:23;;;;;;;1.13;0.68;;;21.30;99.90;;;;;;5041484;28;20391;-89
2022/05/20 12:34:05;;;;;;;0.38;0.38;;;21.20;99.90;;;;;;5058376;28;20116;-86
2022/05/20 12:36:32;;;;;;;1.08;0.70;;;21.10;99.90;;;;;;5057423;28;20073;-87
2022/05/20 12:39:08;;;;;;;0.70;0.35;;;21.10;99.90;;;;;;5074127;28;20076;-85
2022/05/20 12:41:45;;;;;;;0.70;0.52;;;21.00;99.90;;;;;;5072662;28;20037;-85
2022/05/20 12:44:17;;;;;;;0.70;0.60;;;20.90;99.90;;;;;;5067969;28;20410;-88
2022/05/20 12:46:47;;;;;;;0.50;0.40;;;20.90;99.90;;;;;;5066944;28;20095;-87
2022/05/20 12:49:13;;;;;;;1.63;0.65;;;20.90;99.90;;;;;;5070178;28;20051;-87
2022/05/20 12:51:44;;;;;;;0.50;0.38;;;21.00;99.90;;;;;;5066441;28;20032;-86
2022/05/20 12:54:26;;;;;;;0.35;0.30;;;20.90;99.90;;;;;;5059281;28;20131;-88
2022/05/20 12:57:03;;;;;;;0.70;0.50;;;21.00;99.90;;;;;;5077481;28;20039;-87
2022/05/20 12:59:30;;;;;;;0.30;0.30;;;21.00;99.90;;;;;;5093749;28;20546;-88
2022/05/20 13:02:04;;;;;;;0.52;0.43;;;21.10;99.90;;;;;;5072576;28;20040;-88
2022/05/20 13:04:38;;;;;;;0.45;0.45;;;21.20;99.90;;;;;;5076061;28;20370;-88
2022/05/20 13:07:06;;;;;;;0.55;0.50;;;21.00;99.90;;;;;;5058094;28;20045;-88
2022/05/20 13:09:40;;;;;;;0.55;0.28;;;21.00;99.90;;;;;;5040807;28;20084;-88
2022/05/20 13:12:09;;;;;;;0.25;0.25;;;21.00;99.90;;;;;;5056935;28;20124;-88
2022/05/20 13:14:37;;;;;;;0.60;0.47;;;20.90;99.90;;;;;;5056943;28;20073;-88
2022/05/20 13:17:05;;;;;;;0.22;0.22;;;20.80;99.90;;;;;;5057315;28;20049;-87
2022/05/20 13:19:49;;;;;;;0.75;0.50;;;20.70;99.90;;;;;;5057055;28;20485;-87
2022/05/20 13:22:22;;;;;;;1.20;0.40;;;20.70;99.90;;;;;;5073719;28;20049;-88
2022/05/20 13:25:09;;;;;;;0.30;0.30;;;20.60;99.90;;;;;;5074670;28;20049;-88
2022/05/20 13:27:45;;;;;;;0.45;0.40;;;20.50;99.90;;;;;;5090070;28;20485;-87
2022/05/20 13:30:22;;;;;;;0.40;0.30;;;20.40;99.90;;;;;;5076999;28;20049;-87
2022/05/20 13:32:49;;;;;;;0.30;0.30;;;20.40;99.90;;;;;;5091377;28;20051;-88
2022/05/20 13:35:16;;;;;;;0.50;0.40;;;20.40;99.90;;;;;;5056863;28;20037;-88
2022/05/20 13:37:51;;;;;;;0.40;0.30;;;20.40;99.90;;;;;;5040157;28;20406;-86
2022/05/20 13:40:19;;;;;;;0.25;0.25;;;20.30;99.90;;;;;;5056790;28;20048;-88
2022/05/20 13:42:52;;;;;;;0.50;0.40;;;20.30;99.90;;;;;;5072841;28;20524;-88
2022/05/20 13:49:12;;;;;;;0.30;0.30;;;20.10;99.90;;;;;;5072799;28;20516;-85
2022/05/20 13:51:26;;;;;;;0.73;0.50;;;19.90;99.90;;;;;;5072341;28;20045;-86
2022/05/20 13:53:56;;;;;;;0.22;0.22;;;19.80;99.90;;;;;;5072662;28;20052;-87
2022/05/20 13:56:42;;;;;;;0.20;0.10;;;19.70;99.90;;;;;;5072101;28;20044;-87
2022/05/20 13:59:30;;;;;;;0.47;0.40;;;19.70;99.90;;;;;;5072108;28;20041;-87
2022/05/20 14:02:21;;;;;;;0.38;0.30;;;19.60;99.90;;;;;;5055175;28;20063;-88
2022/05/20 14:04:54;;;;;;;0.43;0.30;;;19.60;99.90;;;;;;5071832;28;20037;-85
2022/05/20 14:07:26;;;;;;;0.30;0.30;;;19.40;99.90;;;;;;5072930;28;20037;-86